sensor_id;sensor_type;location;lat;lon;timestamp;P1;durP1;ratioP1;P2;durP2;ratioP2
54845;SDS011;53889;50.084;8.646;2023-02-15T00:01:32;51.17;;;22.70;;
54845;SDS011;53889;50.084;8.646;2023-02-15T00:03:59;46.03;;;20.13;;
54845;SDS011;53889;50.084;8.646;2023-02-15T00:06:26;49.67;;;22.67;;
54845;SDS011;53889;50.084;8.646;2023-02-15T00:08:53;50.35;;;22.67;;
54845;SDS011;53889;50.084;8.646;2023-02-15T01:18:51;42.65;;;20.60;;
54845;SDS011;53889;50.084;8.646;2023-02-15T01:21:20;45.25;;;20.85;;
54845;SDS011;53889;50.084;8.646;2023-02-15T01:23:48;50.17;;;22.42;;
54845;SDS011;53889;50.084;8.646;2023-02-15T01:26:16;41.90;;;20.42;;
54845;SDS011;53889;50.084;8.646;2023-02-15T01:28:43;47.42;;;22.30;;
54845;SDS011;53889;50.084;8.646;2023-02-15T01:31:10;47.33;;;21.30;;
54845;SDS011;53889;50.084;8.646;2023-02-15T01:33:39;44.13;;;21.30;;
54845;SDS011;53889;50.084;8.646;2023-02-15T01:36:09;47.47;;;21.65;;
54845;SDS011;53889;50.084;8.646;2023-02-15T01:38:37;51.65;;;22.40;;
54845;SDS011;53889;50.084;8.646;2023-02-15T01:41:06;47.42;;;21.63;;
54845;SDS011;53889;50.084;8.646;2023-02-15T01:46:21;54.40;;;24.55;;
54845;SDS011;53889;50.084;8.646;2023-02-15T01:48:52;54.53;;;23.70;;
54845;SDS011;53889;50.084;8.646;2023-02-15T01:51:27;52.30;;;24.17;;
54845;SDS011;53889;50.084;8.646;2023-02-15T01:53:57;51.00;;;24.05;;
54845;SDS011;53889;50.084;8.646;2023-02-15T01:56:28;52.78;;;23.80;;
54845;SDS011;53889;50.084;8.646;2023-02-15T01:58:58;54.03;;;24.15;;
54845;SDS011;53889;50.084;8.646;2023-02-15T02:01:28;55.40;;;24.90;;
54845;SDS011;53889;50.084;8.646;2023-02-15T02:03:57;52.95;;;23.33;;
54845;SDS011;53889;50.084;8.646;2023-02-15T02:06:30;47.55;;;22.42;;
54845;SDS011;53889;50.084;8.646;2023-02-15T02:09:00;53.28;;;23.90;;
54845;SDS011;53889;50.084;8.646;2023-02-15T02:11:27;51.55;;;23.73;;
54845;SDS011;53889;50.084;8.646;2023-02-15T02:13:54;51.00;;;23.20;;
54845;SDS011;53889;50.084;8.646;2023-02-15T02:16:23;61.30;;;28.23;;
54845;SDS011;53889;50.084;8.646;2023-02-15T02:18:55;49.83;;;23.08;;
54845;SDS011;53889;50.084;8.646;2023-02-15T02:21:57;52.25;;;23.75;;
54845;SDS011;53889;50.084;8.646;2023-02-15T02:24:50;49.22;;;21.38;;
54845;SDS011;53889;50.084;8.646;2023-02-15T02:27:41;45.05;;;21.08;;
54845;SDS011;53889;50.084;8.646;2023-02-15T02:30:28;55.28;;;24.25;;
54845;SDS011;53889;50.084;8.646;2023-02-15T02:36:12;53.83;;;24.05;;
54845;SDS011;53889;50.084;8.646;2023-02-15T02:38:47;51.85;;;23.27;;
54845;SDS011;53889;50.084;8.646;2023-02-15T02:41:28;58.72;;;25.15;;
54845;SDS011;53889;50.084;8.646;2023-02-15T02:44:01;49.50;;;22.90;;
54845;SDS011;53889;50.084;8.646;2023-02-15T02:46:37;59.75;;;25.25;;
54845;SDS011;53889;50.084;8.646;2023-02-15T02:49:09;53.67;;;22.95;;
54845;SDS011;53889;50.084;8.646;2023-02-15T02:51:37;57.08;;;24.48;;
54845;SDS011;53889;50.084;8.646;2023-02-15T02:54:04;56.25;;;23.95;;
54845;SDS011;53889;50.084;8.646;2023-02-15T02:56:33;49.97;;;22.13;;
54845;SDS011;53889;50.084;8.646;2023-02-15T02:59:04;53.58;;;22.95;;
54845;SDS011;53889;50.084;8.646;2023-02-15T03:01:36;52.03;;;24.73;;
54845;SDS011;53889;50.084;8.646;2023-02-15T03:04:05;54.13;;;23.05;;
54845;SDS011;53889;50.084;8.646;2023-02-15T03:06:38;53.90;;;23.10;;
54845;SDS011;53889;50.084;8.646;2023-02-15T03:09:09;48.45;;;22.40;;
54845;SDS011;53889;50.084;8.646;2023-02-15T03:11:40;51.78;;;22.13;;
54845;SDS011;53889;50.084;8.646;2023-02-15T03:14:08;53.00;;;23.13;;
54845;SDS011;53889;50.084;8.646;2023-02-15T03:16:36;49.17;;;22.33;;
54845;SDS011;53889;50.084;8.646;2023-02-15T03:19:06;49.42;;;22.27;;
54845;SDS011;53889;50.084;8.646;2023-02-15T03:21:35;50.55;;;22.60;;
54845;SDS011;53889;50.084;8.646;2023-02-15T04:17:10;62.38;;;25.17;;
54845;SDS011;53889;50.084;8.646;2023-02-15T04:19:37;59.03;;;24.77;;
54845;SDS011;53889;50.084;8.646;2023-02-15T04:22:21;61.05;;;25.70;;
54845;SDS011;53889;50.084;8.646;2023-02-15T04:25:05;64.90;;;24.42;;
54845;SDS011;53889;50.084;8.646;2023-02-15T04:27:35;58.53;;;24.58;;
54845;SDS011;53889;50.084;8.646;2023-02-15T04:30:03;62.03;;;24.63;;
54845;SDS011;53889;50.084;8.646;2023-02-15T04:32:31;60.20;;;23.95;;
54845;SDS011;53889;50.084;8.646;2023-02-15T04:34:58;64.72;;;25.55;;
54845;SDS011;53889;50.084;8.646;2023-02-15T04:37:24;64.57;;;25.60;;
54845;SDS011;53889;50.084;8.646;2023-02-15T04:39:51;58.42;;;23.67;;
54845;SDS011;53889;50.084;8.646;2023-02-15T04:42:18;63.80;;;25.67;;
54845;SDS011;53889;50.084;8.646;2023-02-15T04:44:44;57.45;;;24.23;;
54845;SDS011;53889;50.084;8.646;2023-02-15T04:47:13;61.38;;;24.63;;
54845;SDS011;53889;50.084;8.646;2023-02-15T04:49:39;63.95;;;24.67;;
54845;SDS011;53889;50.084;8.646;2023-02-15T04:52:06;60.85;;;25.38;;
54845;SDS011;53889;50.084;8.646;2023-02-15T04:54:32;63.88;;;25.45;;
54845;SDS011;53889;50.084;8.646;2023-02-15T04:56:59;66.25;;;25.63;;
54845;SDS011;53889;50.084;8.646;2023-02-15T04:59:26;58.83;;;24.17;;
54845;SDS011;53889;50.084;8.646;2023-02-15T05:01:53;57.80;;;23.58;;
54845;SDS011;53889;50.084;8.646;2023-02-15T05:04:21;50.10;;;22.15;;
54845;SDS011;53889;50.084;8.646;2023-02-15T05:06:48;56.33;;;24.00;;
54845;SDS011;53889;50.084;8.646;2023-02-15T05:09:15;68.90;;;26.73;;
54845;SDS011;53889;50.084;8.646;2023-02-15T05:11:42;60.25;;;24.77;;
54845;SDS011;53889;50.084;8.646;2023-02-15T05:14:08;62.40;;;24.55;;
54845;SDS011;53889;50.084;8.646;2023-02-15T05:16:35;55.60;;;22.67;;
54845;SDS011;53889;50.084;8.646;2023-02-15T05:19:02;63.60;;;26.02;;
54845;SDS011;53889;50.084;8.646;2023-02-15T05:21:30;67.75;;;25.38;;
54845;SDS011;53889;50.084;8.646;2023-02-15T05:23:57;69.85;;;26.25;;
54845;SDS011;53889;50.084;8.646;2023-02-15T05:26:24;67.07;;;26.88;;
54845;SDS011;53889;50.084;8.646;2023-02-15T05:29:09;69.65;;;26.58;;
54845;SDS011;53889;50.084;8.646;2023-02-15T05:31:36;63.42;;;25.00;;
54845;SDS011;53889;50.084;8.646;2023-02-15T05:34:03;64.47;;;26.02;;
54845;SDS011;53889;50.084;8.646;2023-02-15T05:36:32;68.72;;;26.73;;
54845;SDS011;53889;50.084;8.646;2023-02-15T05:38:58;58.83;;;24.73;;
54845;SDS011;53889;50.084;8.646;2023-02-15T05:41:25;62.45;;;24.83;;
54845;SDS011;53889;50.084;8.646;2023-02-15T05:43:54;72.72;;;26.73;;
54845;SDS011;53889;50.084;8.646;2023-02-15T05:46:21;70.07;;;27.83;;
54845;SDS011;53889;50.084;8.646;2023-02-15T05:48:47;69.57;;;26.45;;
54845;SDS011;53889;50.084;8.646;2023-02-15T05:51:14;69.95;;;27.42;;
54845;SDS011;53889;50.084;8.646;2023-02-15T05:53:43;59.53;;;23.55;;
54845;SDS011;53889;50.084;8.646;2023-02-15T05:56:10;60.50;;;24.65;;
54845;SDS011;53889;50.084;8.646;2023-02-15T05:58:38;64.95;;;25.98;;
54845;SDS011;53889;50.084;8.646;2023-02-15T06:01:08;62.17;;;24.95;;
54845;SDS011;53889;50.084;8.646;2023-02-15T06:03:36;57.60;;;23.98;;
54845;SDS011;53889;50.084;8.646;2023-02-15T06:06:03;62.35;;;25.05;;
54845;SDS011;53889;50.084;8.646;2023-02-15T06:08:30;57.75;;;24.10;;
54845;SDS011;53889;50.084;8.646;2023-02-15T06:10:58;63.47;;;25.52;;
54845;SDS011;53889;50.084;8.646;2023-02-15T06:13:25;64.72;;;24.92;;
54845;SDS011;53889;50.084;8.646;2023-02-15T06:15:52;55.85;;;22.70;;
54845;SDS011;53889;50.084;8.646;2023-02-15T06:18:19;53.28;;;22.55;;
54845;SDS011;53889;50.084;8.646;2023-02-15T06:20:46;64.82;;;24.83;;
54845;SDS011;53889;50.084;8.646;2023-02-15T06:23:13;51.33;;;21.75;;
54845;SDS011;53889;50.084;8.646;2023-02-15T06:25:40;52.55;;;22.20;;
54845;SDS011;53889;50.084;8.646;2023-02-15T06:28:08;60.28;;;23.67;;
54845;SDS011;53889;50.084;8.646;2023-02-15T06:30:35;53.80;;;23.13;;
54845;SDS011;53889;50.084;8.646;2023-02-15T06:33:02;56.78;;;22.80;;
54845;SDS011;53889;50.084;8.646;2023-02-15T06:35:29;59.42;;;24.85;;
54845;SDS011;53889;50.084;8.646;2023-02-15T06:37:56;58.22;;;24.48;;
54845;SDS011;53889;50.084;8.646;2023-02-15T06:40:22;61.85;;;24.50;;
54845;SDS011;53889;50.084;8.646;2023-02-15T06:42:49;68.97;;;26.33;;
54845;SDS011;53889;50.084;8.646;2023-02-15T06:45:17;68.47;;;25.15;;
54845;SDS011;53889;50.084;8.646;2023-02-15T06:47:44;62.88;;;24.48;;
54845;SDS011;53889;50.084;8.646;2023-02-15T06:50:11;78.85;;;27.05;;
54845;SDS011;53889;50.084;8.646;2023-02-15T06:52:38;88.72;;;28.77;;
54845;SDS011;53889;50.084;8.646;2023-02-15T06:55:07;66.78;;;25.30;;
54845;SDS011;53889;50.084;8.646;2023-02-15T14:10:21;61.72;;;27.23;;
54845;SDS011;53889;50.084;8.646;2023-02-15T14:13:00;65.53;;;28.40;;
54845;SDS011;53889;50.084;8.646;2023-02-15T14:15:44;62.10;;;27.83;;
54845;SDS011;53889;50.084;8.646;2023-02-15T14:18:18;67.10;;;28.35;;
54845;SDS011;53889;50.084;8.646;2023-02-15T14:34:19;60.80;;;27.20;;
54845;SDS011;53889;50.084;8.646;2023-02-15T14:36:49;63.78;;;25.95;;
54845;SDS011;53889;50.084;8.646;2023-02-15T14:39:22;58.28;;;26.33;;
54845;SDS011;53889;50.084;8.646;2023-02-15T14:42:16;68.97;;;26.80;;
54845;SDS011;53889;50.084;8.646;2023-02-15T14:44:49;70.47;;;29.23;;
54845;SDS011;53889;50.084;8.646;2023-02-15T14:47:22;65.53;;;28.17;;
54845;SDS011;53889;50.084;8.646;2023-02-15T14:49:57;67.10;;;29.70;;
54845;SDS011;53889;50.084;8.646;2023-02-15T14:52:23;65.43;;;29.45;;
54845;SDS011;53889;50.084;8.646;2023-02-15T14:54:54;66.30;;;28.85;;
54845;SDS011;53889;50.084;8.646;2023-02-15T14:57:25;69.95;;;30.13;;
54845;SDS011;53889;50.084;8.646;2023-02-15T14:59:56;66.88;;;29.20;;
54845;SDS011;53889;50.084;8.646;2023-02-15T15:02:24;70.85;;;29.50;;
54845;SDS011;53889;50.084;8.646;2023-02-15T15:05:00;65.45;;;29.05;;
54845;SDS011;53889;50.084;8.646;2023-02-15T15:07:37;77.35;;;31.58;;
54845;SDS011;53889;50.084;8.646;2023-02-15T15:16:29;69.72;;;29.20;;
54845;SDS011;53889;50.084;8.646;2023-02-15T15:19:12;72.55;;;30.45;;
54845;SDS011;53889;50.084;8.646;2023-02-15T15:22:31;82.05;;;32.35;;
54845;SDS011;53889;50.084;8.646;2023-02-15T15:24:59;88.43;;;33.55;;
54845;SDS011;53889;50.084;8.646;2023-02-15T15:33:42;75.32;;;31.75;;
54845;SDS011;53889;50.084;8.646;2023-02-15T15:36:46;80.00;;;34.45;;
54845;SDS011;53889;50.084;8.646;2023-02-15T15:39:51;77.50;;;31.38;;
54845;SDS011;53889;50.084;8.646;2023-02-15T15:42:50;78.93;;;32.30;;
54845;SDS011;53889;50.084;8.646;2023-02-15T15:45:33;80.75;;;32.97;;
54845;SDS011;53889;50.084;8.646;2023-02-15T15:48:21;81.47;;;33.00;;
54845;SDS011;53889;50.084;8.646;2023-02-15T15:50:54;81.30;;;34.13;;
54845;SDS011;53889;50.084;8.646;2023-02-15T15:53:25;79.15;;;33.33;;
54845;SDS011;53889;50.084;8.646;2023-02-15T15:55:56;77.90;;;33.42;;
54845;SDS011;53889;50.084;8.646;2023-02-15T15:58:26;82.45;;;34.40;;
54845;SDS011;53889;50.084;8.646;2023-02-15T16:00:55;78.82;;;32.60;;
54845;SDS011;53889;50.084;8.646;2023-02-15T16:03:28;85.47;;;33.58;;
54845;SDS011;53889;50.084;8.646;2023-02-15T16:05:55;84.05;;;33.60;;
54845;SDS011;53889;50.084;8.646;2023-02-15T16:08:29;83.35;;;34.05;;
54845;SDS011;53889;50.084;8.646;2023-02-15T16:10:58;91.40;;;36.03;;
54845;SDS011;53889;50.084;8.646;2023-02-15T16:13:28;86.38;;;34.78;;
54845;SDS011;53889;50.084;8.646;2023-02-15T16:15:55;90.03;;;35.95;;
54845;SDS011;53889;50.084;8.646;2023-02-15T16:18:23;86.90;;;34.78;;
54845;SDS011;53889;50.084;8.646;2023-02-15T16:20:53;87.10;;;35.72;;
54845;SDS011;53889;50.084;8.646;2023-02-15T16:23:27;85.82;;;35.40;;
54845;SDS011;53889;50.084;8.646;2023-02-15T16:26:13;82.80;;;33.42;;
54845;SDS011;53889;50.084;8.646;2023-02-15T16:28:49;94.07;;;37.33;;
54845;SDS011;53889;50.084;8.646;2023-02-15T16:31:17;95.25;;;36.63;;
54845;SDS011;53889;50.084;8.646;2023-02-15T16:33:45;88.45;;;34.78;;
54845;SDS011;53889;50.084;8.646;2023-02-15T16:36:13;90.18;;;37.45;;
54845;SDS011;53889;50.084;8.646;2023-02-15T16:39:06;90.13;;;35.67;;
54845;SDS011;53889;50.084;8.646;2023-02-15T16:41:43;82.28;;;35.05;;
54845;SDS011;53889;50.084;8.646;2023-02-15T16:44:12;88.53;;;37.03;;
54845;SDS011;53889;50.084;8.646;2023-02-15T16:46:46;89.75;;;37.90;;
54845;SDS011;53889;50.084;8.646;2023-02-15T16:49:16;86.25;;;35.85;;
54845;SDS011;53889;50.084;8.646;2023-02-15T16:51:53;90.05;;;36.83;;
54845;SDS011;53889;50.084;8.646;2023-02-15T16:54:22;85.22;;;35.60;;
54845;SDS011;53889;50.084;8.646;2023-02-15T16:56:52;78.35;;;33.72;;
54845;SDS011;53889;50.084;8.646;2023-02-15T16:59:21;89.13;;;35.47;;
54845;SDS011;53889;50.084;8.646;2023-02-15T17:01:58;80.40;;;35.67;;
54845;SDS011;53889;50.084;8.646;2023-02-15T17:04:26;81.22;;;35.35;;
54845;SDS011;53889;50.084;8.646;2023-02-15T17:07:00;74.40;;;33.50;;
54845;SDS011;53889;50.084;8.646;2023-02-15T17:09:29;83.22;;;35.55;;
54845;SDS011;53889;50.084;8.646;2023-02-15T17:11:58;75.82;;;33.97;;
54845;SDS011;53889;50.084;8.646;2023-02-15T17:14:27;86.20;;;36.83;;
54845;SDS011;53889;50.084;8.646;2023-02-15T17:16:58;84.65;;;36.75;;
54845;SDS011;53889;50.084;8.646;2023-02-15T17:19:28;92.93;;;40.60;;
54845;SDS011;53889;50.084;8.646;2023-02-15T17:21:57;78.22;;;34.60;;
54845;SDS011;53889;50.084;8.646;2023-02-15T17:24:32;84.15;;;36.72;;
54845;SDS011;53889;50.084;8.646;2023-02-15T17:27:07;79.35;;;34.40;;
54845;SDS011;53889;50.084;8.646;2023-02-15T17:29:41;87.40;;;37.58;;
54845;SDS011;53889;50.084;8.646;2023-02-15T17:32:13;84.63;;;37.28;;
54845;SDS011;53889;50.084;8.646;2023-02-15T17:34:48;85.88;;;37.28;;
54845;SDS011;53889;50.084;8.646;2023-02-15T17:37:30;89.28;;;37.33;;
54845;SDS011;53889;50.084;8.646;2023-02-15T17:39:58;96.70;;;39.67;;
54845;SDS011;53889;50.084;8.646;2023-02-15T17:42:28;89.57;;;38.40;;
54845;SDS011;53889;50.084;8.646;2023-02-15T17:44:54;93.18;;;39.92;;
54845;SDS011;53889;50.084;8.646;2023-02-15T17:47:22;82.60;;;37.50;;
54845;SDS011;53889;50.084;8.646;2023-02-15T17:49:51;76.78;;;34.55;;
54845;SDS011;53889;50.084;8.646;2023-02-15T17:52:19;86.57;;;39.58;;
54845;SDS011;53889;50.084;8.646;2023-02-15T17:54:46;82.85;;;36.28;;
54845;SDS011;53889;50.084;8.646;2023-02-15T17:57:32;91.68;;;38.58;;
54845;SDS011;53889;50.084;8.646;2023-02-15T17:59:59;83.95;;;36.50;;
54845;SDS011;53889;50.084;8.646;2023-02-15T18:02:43;74.72;;;33.75;;
54845;SDS011;53889;50.084;8.646;2023-02-15T18:05:28;81.32;;;36.33;;
54845;SDS011;53889;50.084;8.646;2023-02-15T18:08:15;78.25;;;33.80;;
54845;SDS011;53889;50.084;8.646;2023-02-15T18:11:02;80.13;;;35.17;;
54845;SDS011;53889;50.084;8.646;2023-02-15T18:13:48;92.10;;;39.07;;
54845;SDS011;53889;50.084;8.646;2023-02-15T18:16:16;83.95;;;36.58;;
54845;SDS011;53889;50.084;8.646;2023-02-15T18:18:47;75.38;;;35.45;;
54845;SDS011;53889;50.084;8.646;2023-02-15T18:21:15;80.28;;;37.28;;
54845;SDS011;53889;50.084;8.646;2023-02-15T18:23:43;79.28;;;36.80;;
54845;SDS011;53889;50.084;8.646;2023-02-15T18:26:12;80.35;;;35.95;;
54845;SDS011;53889;50.084;8.646;2023-02-15T18:28:44;80.90;;;37.50;;
54845;SDS011;53889;50.084;8.646;2023-02-15T18:31:13;77.20;;;34.10;;
54845;SDS011;53889;50.084;8.646;2023-02-15T18:33:41;78.63;;;35.55;;
54845;SDS011;53889;50.084;8.646;2023-02-15T18:36:12;76.57;;;35.40;;
54845;SDS011;53889;50.084;8.646;2023-02-15T18:38:42;88.55;;;38.83;;
54845;SDS011;53889;50.084;8.646;2023-02-15T18:41:11;88.05;;;38.00;;
54845;SDS011;53889;50.084;8.646;2023-02-15T18:43:42;82.30;;;37.22;;
54845;SDS011;53889;50.084;8.646;2023-02-15T18:46:09;97.13;;;38.67;;
54845;SDS011;53889;50.084;8.646;2023-02-15T18:48:37;85.43;;;36.13;;
54845;SDS011;53889;50.084;8.646;2023-02-15T18:51:04;93.47;;;38.97;;
54845;SDS011;53889;50.084;8.646;2023-02-15T18:53:33;94.70;;;38.63;;
54845;SDS011;53889;50.084;8.646;2023-02-15T18:56:00;83.30;;;36.72;;
54845;SDS011;53889;50.084;8.646;2023-02-15T18:58:27;91.25;;;37.80;;
54845;SDS011;53889;50.084;8.646;2023-02-15T19:00:54;92.35;;;39.70;;
54845;SDS011;53889;50.084;8.646;2023-02-15T19:03:22;86.65;;;37.63;;
54845;SDS011;53889;50.084;8.646;2023-02-15T19:05:51;90.50;;;37.90;;
54845;SDS011;53889;50.084;8.646;2023-02-15T19:08:18;82.35;;;35.10;;
54845;SDS011;53889;50.084;8.646;2023-02-15T19:10:48;80.28;;;36.42;;
54845;SDS011;53889;50.084;8.646;2023-02-15T19:13:16;81.60;;;37.10;;
54845;SDS011;53889;50.084;8.646;2023-02-15T19:15:43;80.78;;;36.03;;
54845;SDS011;53889;50.084;8.646;2023-02-15T19:18:10;87.65;;;36.92;;
54845;SDS011;53889;50.084;8.646;2023-02-15T19:20:38;76.25;;;34.40;;
54845;SDS011;53889;50.084;8.646;2023-02-15T19:23:08;84.45;;;36.97;;
54845;SDS011;53889;50.084;8.646;2023-02-15T19:25:39;79.25;;;34.70;;
54845;SDS011;53889;50.084;8.646;2023-02-15T19:28:10;84.85;;;35.42;;
54845;SDS011;53889;50.084;8.646;2023-02-15T19:30:40;78.55;;;34.42;;
54845;SDS011;53889;50.084;8.646;2023-02-15T19:33:08;79.90;;;34.85;;
54845;SDS011;53889;50.084;8.646;2023-02-15T19:35:41;76.07;;;34.03;;
54845;SDS011;53889;50.084;8.646;2023-02-15T19:38:13;81.93;;;37.30;;
54845;SDS011;53889;50.084;8.646;2023-02-15T19:40:43;74.65;;;34.03;;
54845;SDS011;53889;50.084;8.646;2023-02-15T19:43:12;85.35;;;37.45;;
54845;SDS011;53889;50.084;8.646;2023-02-15T19:45:41;76.75;;;34.75;;
54845;SDS011;53889;50.084;8.646;2023-02-15T19:48:09;87.50;;;37.20;;
54845;SDS011;53889;50.084;8.646;2023-02-15T19:50:37;92.80;;;37.60;;
54845;SDS011;53889;50.084;8.646;2023-02-15T19:53:04;83.38;;;36.15;;
54845;SDS011;53889;50.084;8.646;2023-02-15T19:55:32;80.43;;;35.15;;
54845;SDS011;53889;50.084;8.646;2023-02-15T19:58:02;84.40;;;35.17;;
54845;SDS011;53889;50.084;8.646;2023-02-15T20:00:32;76.00;;;32.45;;
54845;SDS011;53889;50.084;8.646;2023-02-15T20:02:59;83.18;;;35.42;;
54845;SDS011;53889;50.084;8.646;2023-02-15T20:05:27;77.07;;;34.22;;
54845;SDS011;53889;50.084;8.646;2023-02-15T20:07:56;73.55;;;32.25;;
54845;SDS011;53889;50.084;8.646;2023-02-15T20:10:24;73.32;;;33.00;;
54845;SDS011;53889;50.084;8.646;2023-02-15T20:12:55;81.22;;;35.28;;
54845;SDS011;53889;50.084;8.646;2023-02-15T20:15:23;82.45;;;34.92;;
54845;SDS011;53889;50.084;8.646;2023-02-15T20:17:51;83.22;;;34.65;;
54845;SDS011;53889;50.084;8.646;2023-02-15T20:20:18;96.72;;;38.75;;
54845;SDS011;53889;50.084;8.646;2023-02-15T20:22:49;82.95;;;34.75;;
54845;SDS011;53889;50.084;8.646;2023-02-15T20:25:18;96.15;;;37.95;;
54845;SDS011;53889;50.084;8.646;2023-02-15T20:27:46;93.53;;;37.78;;
54845;SDS011;53889;50.084;8.646;2023-02-15T20:30:15;83.53;;;35.28;;
54845;SDS011;53889;50.084;8.646;2023-02-15T21:43:09;92.40;;;37.33;;
54845;SDS011;53889;50.084;8.646;2023-02-15T21:46:09;96.70;;;38.13;;
54845;SDS011;53889;50.084;8.646;2023-02-15T21:48:57;87.15;;;34.40;;
54845;SDS011;53889;50.084;8.646;2023-02-15T22:13:08;101.00;;;38.42;;
54845;SDS011;53889;50.084;8.646;2023-02-15T22:15:39;94.85;;;36.50;;
54845;SDS011;53889;50.084;8.646;2023-02-15T22:18:08;104.07;;;38.22;;
54845;SDS011;53889;50.084;8.646;2023-02-15T22:20:45;89.95;;;35.35;;
54845;SDS011;53889;50.084;8.646;2023-02-15T22:23:13;85.10;;;36.30;;
54845;SDS011;53889;50.084;8.646;2023-02-15T22:25:39;91.78;;;35.78;;
54845;SDS011;53889;50.084;8.646;2023-02-15T22:28:10;100.78;;;38.00;;
54845;SDS011;53889;50.084;8.646;2023-02-15T22:30:40;85.70;;;34.38;;
54845;SDS011;53889;50.084;8.646;2023-02-15T22:33:14;98.68;;;37.35;;
54845;SDS011;53889;50.084;8.646;2023-02-15T22:35:48;94.20;;;36.38;;
54845;SDS011;53889;50.084;8.646;2023-02-15T22:38:15;89.78;;;35.00;;
54845;SDS011;53889;50.084;8.646;2023-02-15T22:40:42;94.78;;;36.30;;
54845;SDS011;53889;50.084;8.646;2023-02-15T22:43:14;91.95;;;36.40;;
54845;SDS011;53889;50.084;8.646;2023-02-15T22:45:47;93.28;;;36.85;;
54845;SDS011;53889;50.084;8.646;2023-02-15T22:48:19;84.72;;;35.03;;
54845;SDS011;53889;50.084;8.646;2023-02-15T22:50:47;92.53;;;36.85;;
54845;SDS011;53889;50.084;8.646;2023-02-15T22:53:14;105.68;;;39.08;;
54845;SDS011;53889;50.084;8.646;2023-02-15T22:55:41;92.57;;;37.53;;
54845;SDS011;53889;50.084;8.646;2023-02-15T22:58:13;83.82;;;33.90;;
54845;SDS011;53889;50.084;8.646;2023-02-15T23:00:44;99.70;;;38.60;;
54845;SDS011;53889;50.084;8.646;2023-02-15T23:03:14;101.07;;;37.75;;
54845;SDS011;53889;50.084;8.646;2023-02-15T23:05:42;81.00;;;32.38;;
54845;SDS011;53889;50.084;8.646;2023-02-15T23:08:10;101.85;;;37.97;;
54845;SDS011;53889;50.084;8.646;2023-02-15T23:10:37;91.57;;;34.85;;
54845;SDS011;53889;50.084;8.646;2023-02-15T23:18:30;82.22;;;33.38;;
54845;SDS011;53889;50.084;8.646;2023-02-15T23:20:59;95.55;;;35.92;;
54845;SDS011;53889;50.084;8.646;2023-02-15T23:23:29;92.03;;;35.22;;
54845;SDS011;53889;50.084;8.646;2023-02-15T23:26:00;98.32;;;35.67;;
54845;SDS011;53889;50.084;8.646;2023-02-15T23:28:28;87.63;;;33.83;;
54845;SDS011;53889;50.084;8.646;2023-02-15T23:30:57;87.82;;;35.10;;
54845;SDS011;53889;50.084;8.646;2023-02-15T23:33:26;102.80;;;38.33;;
54845;SDS011;53889;50.084;8.646;2023-02-15T23:35:54;102.85;;;37.80;;
54845;SDS011;53889;50.084;8.646;2023-02-15T23:38:22;99.63;;;36.08;;
54845;SDS011;53889;50.084;8.646;2023-02-15T23:40:54;101.00;;;36.53;;
54845;SDS011;53889;50.084;8.646;2023-02-15T23:43:41;95.47;;;36.55;;
54845;SDS011;53889;50.084;8.646;2023-02-15T23:46:19;91.82;;;35.53;;
54845;SDS011;53889;50.084;8.646;2023-02-15T23:48:48;104.28;;;36.90;;
54845;SDS011;53889;50.084;8.646;2023-02-15T23:51:15;99.57;;;37.45;;
54845;SDS011;53889;50.084;8.646;2023-02-15T23:53:42;107.75;;;39.13;;
54845;SDS011;53889;50.084;8.646;2023-02-15T23:56:10;108.50;;;40.20;;
54845;SDS011;53889;50.084;8.646;2023-02-15T23:58:38;101.13;;;38.30;;
